createdAt,value
2023-03-04T00:04:48.716Z,25.20
2023-03-04T00:09:50.250Z,23.00
2023-03-04T00:14:52.000Z,21.30
2023-03-04T00:19:53.876Z,25.40
2023-03-04T00:24:55.353Z,21.60
2023-03-04T00:29:57.599Z,21.00
2023-03-04T00:34:59.304Z,28.50
2023-03-04T00:40:01.661Z,25.20
2023-03-04T00:45:03.676Z,24.20
2023-03-04T00:50:06.379Z,28.10
2023-03-04T00:55:09.376Z,36.80
2023-03-04T01:00:14.648Z,32.80
2023-03-04T01:05:16.640Z,33.10
2023-03-04T01:10:19.335Z,37.00
2023-03-04T01:15:20.847Z,31.70
2023-03-04T01:20:22.513Z,34.30
2023-03-04T01:25:24.454Z,28.70
2023-03-04T01:30:25.945Z,30.50
2023-03-04T01:35:28.216Z,29.70
2023-03-04T01:40:31.206Z,35.00
2023-03-04T01:45:34.013Z,27.40
2023-03-04T01:50:36.204Z,29.30
2023-03-04T01:55:37.689Z,16.80
2023-03-04T02:00:39.882Z,26.20
2023-03-04T02:05:45.455Z,24.00
2023-03-04T02:10:48.226Z,20.20
2023-03-04T02:15:50.338Z,29.70
2023-03-04T02:21:23.409Z,33.40
2023-03-04T02:26:27.710Z,22.40
2023-03-04T02:31:34.006Z,34.20
2023-03-04T02:36:37.240Z,24.00
2023-03-04T02:41:40.132Z,15.70
2023-03-04T02:46:42.042Z,17.40
2023-03-04T02:51:43.865Z,22.10
2023-03-04T02:56:47.538Z,21.90
2023-03-04T03:01:50.075Z,22.20
2023-03-04T03:06:52.004Z,20.00
2023-03-04T03:11:53.570Z,24.40
2023-03-04T03:16:55.351Z,24.80
2023-03-04T03:21:56.821Z,25.70
2023-03-04T03:26:58.315Z,25.90
2023-03-04T03:31:59.845Z,22.20
2023-03-04T03:37:01.626Z,18.00
2023-03-04T03:42:03.382Z,21.30
2023-03-04T03:47:04.909Z,21.20
2023-03-04T03:52:08.405Z,23.60
2023-03-04T03:57:09.947Z,19.70
2023-03-04T04:02:11.509Z,22.70
2023-03-04T04:07:13.095Z,25.20
2023-03-04T04:12:16.956Z,27.40
2023-03-04T04:17:18.465Z,21.60
2023-03-04T04:22:21.103Z,24.50
2023-03-04T04:27:22.983Z,24.20
2023-03-04T04:32:24.535Z,24.40
2023-03-04T04:37:26.131Z,22.70
2023-03-04T04:42:27.870Z,24.80
2023-03-04T04:47:29.482Z,22.80
2023-03-04T04:52:31.035Z,18.40
2023-03-04T04:57:33.922Z,18.40
2023-03-04T05:02:37.361Z,23.80
2023-03-04T05:07:39.325Z,22.30
2023-03-04T05:12:41.130Z,19.40
2023-03-04T05:17:42.873Z,16.00
2023-03-04T05:22:44.862Z,24.60
2023-03-04T05:27:46.370Z,22.20
2023-03-04T05:32:48.073Z,16.50
2023-03-04T05:37:49.559Z,23.00
2023-03-04T05:42:51.316Z,24.50
2023-03-04T05:47:53.775Z,21.80
2023-03-04T05:52:55.306Z,19.40
2023-03-04T05:57:57.986Z,22.30
2023-03-04T06:02:59.922Z,21.70
2023-03-04T06:08:01.506Z,24.10
2023-03-04T06:13:03.206Z,21.10
2023-03-04T06:18:04.729Z,21.60
2023-03-04T06:23:06.382Z,20.80
2023-03-04T06:28:07.851Z,15.20
2023-03-04T06:33:09.654Z,21.60
2023-03-04T06:38:11.121Z,21.10
2023-03-04T06:43:12.578Z,18.50
2023-03-04T06:48:14.115Z,22.20
2023-03-04T06:53:15.823Z,24.10
2023-03-04T06:58:17.505Z,22.10
2023-03-04T07:03:19.176Z,19.40
2023-03-04T07:08:22.088Z,14.60
2023-03-04T07:13:23.767Z,22.10
2023-03-04T07:18:25.618Z,23.00
2023-03-04T07:23:27.809Z,22.30
2023-03-04T07:28:29.591Z,19.90
2023-03-04T07:33:31.343Z,20.60
2023-03-04T07:38:33.752Z,21.50
2023-03-04T07:43:35.524Z,16.50
2023-03-04T07:48:37.406Z,16.80
2023-03-04T07:53:41.536Z,16.20
2023-03-04T07:58:43.189Z,21.10
2023-03-04T08:03:45.220Z,19.10
2023-03-04T08:08:48.771Z,16.30
2023-03-04T08:13:50.647Z,18.40
2023-03-04T08:18:55.469Z,21.20
2023-03-04T08:24:04.330Z,17.80
2023-03-04T08:29:06.361Z,19.80
2023-03-04T08:34:10.347Z,13.40
2023-03-04T08:39:14.985Z,19.70
2023-03-04T08:44:17.094Z,17.80
2023-03-04T08:49:19.203Z,12.60
2023-03-04T08:54:20.760Z,17.40
2023-03-04T08:59:22.283Z,17.70
2023-03-04T09:04:24.651Z,11.40
2023-03-04T09:09:26.294Z,11.70
2023-03-04T09:14:28.094Z,12.80
2023-03-04T09:19:30.064Z,16.50
2023-03-04T09:24:32.051Z,11.70
2023-03-04T09:29:33.542Z,17.20
2023-03-04T09:34:34.999Z,14.20
2023-03-04T09:39:36.876Z,14.50
2023-03-04T09:44:43.214Z,13.50
2023-03-04T09:49:49.323Z,12.90
2023-03-04T09:55:04.926Z,17.20
2023-03-04T10:00:10.576Z,14.00
2023-03-04T10:05:23.835Z,13.70
2023-03-04T10:10:38.206Z,18.60
2023-03-04T10:15:48.495Z,18.50
2023-03-04T10:21:02.801Z,17.90
2023-03-04T10:26:13.539Z,19.70
2023-03-04T10:31:43.006Z,17.00
2023-03-04T10:37:01.744Z,16.60
2023-03-04T10:42:30.223Z,15.80
2023-03-04T10:47:33.085Z,14.10
2023-03-04T10:52:48.355Z,15.50
2023-03-04T10:57:57.709Z,16.20
2023-03-04T11:03:29.609Z,16.30
2023-03-04T11:08:32.452Z,17.20
2023-03-04T11:13:35.454Z,14.70
2023-03-04T11:18:47.004Z,16.20
2023-03-04T11:24:08.168Z,12.90
2023-03-04T11:29:27.010Z,14.80
2023-03-04T11:34:37.762Z,15.40
2023-03-04T11:39:46.409Z,14.60
2023-03-04T11:44:48.039Z,10.90
2023-03-04T11:50:08.747Z,16.80
2023-03-04T11:55:21.865Z,14.10
2023-03-04T12:00:51.530Z,14.80
2023-03-04T12:06:11.782Z,13.90
2023-03-04T12:11:33.360Z,13.70
2023-03-04T12:17:11.494Z,11.30
2023-03-04T12:22:27.637Z,17.30
2023-03-04T12:27:57.727Z,12.70
2023-03-04T12:33:27.919Z,13.10
2023-03-04T12:38:32.169Z,13.30
2023-03-04T12:43:49.838Z,15.70
2023-03-04T12:49:18.531Z,11.40
2023-03-04T12:54:37.520Z,12.20
2023-03-04T13:00:08.457Z,13.90
2023-03-04T13:05:34.407Z,15.70
2023-03-04T13:10:35.949Z,19.50
2023-03-04T13:15:38.804Z,15.90
2023-03-04T13:20:41.776Z,15.00
2023-03-04T13:25:48.202Z,15.80
2023-03-04T13:30:53.407Z,20.00
2023-03-04T13:36:05.301Z,19.40
2023-03-04T13:41:21.689Z,18.50
2023-03-04T13:46:24.062Z,14.10
2023-03-04T13:51:44.215Z,11.80
2023-03-04T13:56:47.829Z,11.60
2023-03-04T14:01:55.740Z,12.00
2023-03-04T14:06:59.854Z,9.50
2023-03-04T14:12:12.981Z,8.50
2023-03-04T14:17:22.137Z,9.10
2023-03-04T14:22:25.607Z,10.50
2023-03-04T14:27:27.706Z,8.70
2023-03-04T14:32:30.448Z,8.60
2023-03-04T14:37:50.029Z,8.70
2023-03-04T14:42:57.028Z,9.80
2023-03-04T14:48:04.959Z,8.40
2023-03-04T14:53:17.171Z,6.90
2023-03-04T14:58:24.877Z,8.80
2023-03-04T15:03:32.201Z,10.50
2023-03-04T15:08:38.529Z,8.00
2023-03-04T15:13:44.855Z,8.70
2023-03-04T15:19:00.462Z,9.20
2023-03-04T15:24:03.750Z,9.30
2023-03-04T15:29:19.707Z,12.80
2023-03-04T15:34:21.342Z,10.70
2023-03-04T15:39:23.492Z,14.40
2023-03-04T15:44:25.018Z,17.20
2023-03-04T15:49:26.950Z,19.00
2023-03-04T15:54:29.635Z,13.30
2023-03-04T15:59:31.159Z,10.10
2023-03-04T16:04:32.669Z,8.90
2023-03-04T16:09:34.378Z,9.40
2023-03-04T16:14:35.865Z,8.20
2023-03-04T16:19:37.393Z,7.30
2023-03-04T16:24:38.956Z,7.80
2023-03-04T16:29:41.719Z,3.90
2023-03-04T16:34:43.230Z,6.90
2023-03-04T16:39:46.270Z,8.10
2023-03-04T16:44:49.581Z,10.30
2023-03-04T16:49:51.426Z,8.60
2023-03-04T16:54:53.665Z,6.30
2023-03-04T16:59:55.273Z,6.00
2023-03-04T17:04:58.863Z,9.10
2023-03-04T17:10:00.436Z,5.20
2023-03-04T17:15:04.298Z,6.40
2023-03-04T17:20:08.775Z,5.10
2023-03-04T17:25:11.916Z,8.40
2023-03-04T17:30:14.091Z,9.80
2023-03-04T17:35:15.553Z,7.70
2023-03-04T17:40:17.570Z,6.00
2023-03-04T17:45:19.124Z,4.20
2023-03-04T17:50:21.322Z,3.30
2023-03-04T17:55:22.811Z,3.10
2023-03-04T18:00:24.485Z,5.00
2023-03-04T18:05:26.321Z,2.00
2023-03-04T18:10:28.416Z,2.10
2023-03-04T18:15:30.093Z,6.90
2023-03-04T18:20:31.906Z,4.50
2023-03-04T18:25:33.418Z,3.40
2023-03-04T18:30:35.298Z,5.00
2023-03-04T18:35:37.203Z,4.00
2023-03-04T18:40:40.292Z,4.30
2023-03-04T18:45:41.815Z,7.10
2023-03-04T18:50:43.334Z,5.20
2023-03-04T18:55:45.238Z,2.50
2023-03-04T19:00:46.806Z,3.50
2023-03-04T19:05:48.424Z,1.80
2023-03-04T19:10:50.128Z,4.20
2023-03-04T19:15:53.353Z,2.30
2023-03-04T19:20:55.021Z,3.90
2023-03-04T19:25:56.559Z,3.70
2023-03-04T19:30:59.546Z,2.90
2023-03-04T19:36:03.992Z,4.80
2023-03-04T19:41:14.626Z,4.20
2023-03-04T19:46:16.332Z,3.90
2023-03-04T19:51:22.144Z,3.20
2023-03-04T19:56:24.461Z,4.70
2023-03-04T20:01:31.273Z,6.50
2023-03-04T20:06:36.555Z,7.70
2023-03-04T20:11:47.412Z,4.10
2023-03-04T20:17:01.335Z,3.30
2023-03-04T20:22:03.482Z,3.90
2023-03-04T20:27:05.092Z,5.10
2023-03-04T20:32:06.838Z,2.60
2023-03-04T20:37:08.336Z,4.10
2023-03-04T20:42:09.846Z,3.70
2023-03-04T20:47:11.479Z,7.30
2023-03-04T20:52:13.143Z,5.20
2023-03-04T20:57:14.782Z,8.30
2023-03-04T21:02:18.211Z,12.70
2023-03-04T21:07:19.695Z,8.70
2023-03-04T21:12:21.420Z,13.20
2023-03-04T21:17:24.539Z,12.80
2023-03-04T21:22:27.042Z,9.70
2023-03-04T21:27:28.610Z,15.30
2023-03-04T21:32:30.248Z,12.90
2023-03-04T21:37:31.810Z,13.00
2023-03-04T21:42:33.718Z,26.20
2023-03-04T21:47:35.773Z,7.90
2023-03-04T21:52:37.849Z,7.80
2023-03-04T21:57:39.372Z,17.20
2023-03-04T22:02:41.338Z,8.50
2023-03-04T22:07:42.856Z,24.80
2023-03-04T22:12:44.326Z,33.40
2023-03-04T22:17:46.022Z,16.30
2023-03-04T22:22:47.642Z,11.30
2023-03-04T22:27:49.249Z,14.00
2023-03-04T22:32:51.097Z,13.70
2023-03-04T22:37:52.888Z,9.40
2023-03-04T22:42:54.359Z,9.30
2023-03-04T22:47:56.228Z,6.60
2023-03-04T22:52:57.825Z,9.20
2023-03-04T22:57:59.302Z,8.70
2023-03-04T23:03:01.430Z,11.40
2023-03-04T23:08:03.034Z,9.40
2023-03-04T23:13:04.586Z,7.60
2023-03-04T23:18:06.056Z,11.50
2023-03-04T23:23:08.783Z,11.30
2023-03-04T23:28:10.275Z,11.90
2023-03-04T23:33:11.754Z,17.30
2023-03-04T23:38:13.273Z,8.70
2023-03-04T23:43:14.782Z,12.70
2023-03-04T23:48:16.236Z,9.50
2023-03-04T23:53:19.620Z,13.40
2023-03-04T23:58:21.212Z,12.60
